createdAt,value
2018-07-06T00:02:05.584Z,2.27
2018-07-06T00:04:45.440Z,2.47
2018-07-06T00:07:24.977Z,2.57
2018-07-06T00:10:04.617Z,2.17
2018-07-06T00:12:44.295Z,2.40
2018-07-06T00:15:23.846Z,2.70
2018-07-06T00:18:03.317Z,2.40
2018-07-06T00:20:42.968Z,2.10
2018-07-06T00:23:16.679Z,2.30
2018-07-06T00:25:56.451Z,2.33
2018-07-06T00:28:36.179Z,2.17
2018-07-06T00:31:15.894Z,2.30
2018-07-06T00:33:49.477Z,2.40
2018-07-06T00:36:29.182Z,2.40
2018-07-06T00:39:08.626Z,2.60
2018-07-06T00:41:48.272Z,2.67
2018-07-06T00:44:27.940Z,2.60
2018-07-06T00:47:07.647Z,2.70
2018-07-06T00:49:47.386Z,2.63
2018-07-06T00:52:27.056Z,2.57
2018-07-06T00:55:06.627Z,2.53
2018-07-06T00:57:50.483Z,2.30
2018-07-06T01:00:24.340Z,2.47
2018-07-06T01:03:04.025Z,2.70
2018-07-06T01:05:43.575Z,2.90
2018-07-06T01:08:17.288Z,2.90
2018-07-06T01:10:56.947Z,2.93
2018-07-06T01:13:36.604Z,3.00
2018-07-06T01:16:16.404Z,2.60
2018-07-06T01:18:50.222Z,2.87
2018-07-06T01:21:29.824Z,3.17
2018-07-06T01:24:09.567Z,2.77
2018-07-06T01:26:49.269Z,3.17
2018-07-06T01:29:28.819Z,3.03
2018-07-06T01:32:08.557Z,3.10
2018-07-06T01:34:48.238Z,2.43
2018-07-06T01:37:27.818Z,2.70
2018-07-06T01:40:07.589Z,2.67
2018-07-06T01:42:47.262Z,2.63
2018-07-06T01:45:26.993Z,2.40
2018-07-06T01:48:06.591Z,2.80
2018-07-06T01:50:40.277Z,2.30
2018-07-06T01:53:19.943Z,2.90
2018-07-06T01:55:59.613Z,2.60
2018-07-06T01:58:39.219Z,2.60
2018-07-06T02:01:12.882Z,2.43
2018-07-06T02:03:52.837Z,3.03
2018-07-06T02:06:32.303Z,3.00
2018-07-06T02:09:06.021Z,2.27
2018-07-06T02:11:45.683Z,2.60
2018-07-06T02:14:25.438Z,2.60
2018-07-06T02:17:05.161Z,3.10
2018-07-06T02:19:44.786Z,2.53
2018-07-06T02:22:18.978Z,2.60
2018-07-06T02:24:58.605Z,2.50
2018-07-06T02:27:38.274Z,2.70
2018-07-06T02:30:17.904Z,2.90
2018-07-06T02:32:57.585Z,3.20
2018-07-06T02:35:37.660Z,2.70
2018-07-06T02:38:17.434Z,3.20
2018-07-06T02:40:57.248Z,3.17
2018-07-06T02:43:37.010Z,3.50
2018-07-06T02:46:16.672Z,3.43
2018-07-06T02:48:56.395Z,3.10
2018-07-06T02:51:36.018Z,2.80
2018-07-06T02:54:15.503Z,3.20
2018-07-06T02:56:55.090Z,3.77
2018-07-06T02:59:34.687Z,3.43
2018-07-06T03:02:14.341Z,4.90
2018-07-06T03:04:53.908Z,4.57
2018-07-06T03:07:27.527Z,3.77
2018-07-06T03:10:07.081Z,3.83
2018-07-06T03:12:46.819Z,4.50
2018-07-06T03:15:26.404Z,3.40
2018-07-06T03:18:06.203Z,4.50
2018-07-06T03:20:45.786Z,4.70
2018-07-06T03:23:25.595Z,4.63
2018-07-06T03:26:05.271Z,4.57
2018-07-06T03:28:45.311Z,4.03
2018-07-06T03:31:24.553Z,4.13
2018-07-06T03:34:04.362Z,3.97
2018-07-06T03:36:43.859Z,4.00
2018-07-06T03:39:23.490Z,3.57
2018-07-06T03:42:03.068Z,4.43
2018-07-06T03:44:42.815Z,4.13
2018-07-06T03:47:22.272Z,4.03
2018-07-06T03:50:01.929Z,3.60
2018-07-06T03:52:41.567Z,4.50
2018-07-06T03:55:21.612Z,4.77
2018-07-06T03:58:02.887Z,5.60
2018-07-06T04:00:42.583Z,6.60
2018-07-06T04:03:22.344Z,6.20
2018-07-06T04:06:02.240Z,5.00
2018-07-06T04:08:41.962Z,4.50
2018-07-06T04:11:21.806Z,3.70
2018-07-06T04:14:01.462Z,4.13
2018-07-06T04:16:41.116Z,5.00
2018-07-06T04:19:20.840Z,4.50
2018-07-06T04:22:00.501Z,5.10
2018-07-06T04:24:39.958Z,6.57
2018-07-06T04:27:19.676Z,6.60
2018-07-06T04:29:59.213Z,7.93
2018-07-06T04:32:38.815Z,6.27
2018-07-06T04:35:18.506Z,6.30
2018-07-06T04:37:58.179Z,6.43
2018-07-06T04:40:37.911Z,6.50
2018-07-06T04:43:17.559Z,6.10
2018-07-06T04:45:57.282Z,6.37
2018-07-06T04:48:36.983Z,7.10
2018-07-06T04:51:10.786Z,7.33
2018-07-06T04:53:50.314Z,7.07
2018-07-06T04:56:30.034Z,9.10
2018-07-06T04:59:09.852Z,8.40
2018-07-06T05:01:49.554Z,7.20
2018-07-06T05:04:29.095Z,7.20
2018-07-06T05:07:08.883Z,7.80
2018-07-06T05:09:48.638Z,7.27
2018-07-06T05:12:28.356Z,7.60
2018-07-06T05:15:08.043Z,7.07
2018-07-06T05:17:47.735Z,7.80
2018-07-06T05:20:21.481Z,11.33
2018-07-06T05:23:01.233Z,8.63
2018-07-06T05:25:40.977Z,7.50
2018-07-06T05:28:20.724Z,7.60
2018-07-06T05:31:00.395Z,7.20
2018-07-06T05:33:40.080Z,7.40
2018-07-06T05:36:19.764Z,8.37
2018-07-06T05:38:59.234Z,7.60
2018-07-06T05:41:38.580Z,7.47
2018-07-06T05:44:18.337Z,8.77
2018-07-06T05:46:58.028Z,9.70
2018-07-06T05:49:37.606Z,8.90
2018-07-06T05:52:11.174Z,8.40
2018-07-06T05:54:50.696Z,8.40
2018-07-06T05:57:30.289Z,8.63
2018-07-06T06:00:10.070Z,8.07
2018-07-06T06:02:49.568Z,7.60
2018-07-06T06:05:23.247Z,8.10
2018-07-06T06:07:50.528Z,8.03
2018-07-06T06:10:18.558Z,8.00
2018-07-06T06:12:46.819Z,8.17
2018-07-06T06:15:15.098Z,8.93
2018-07-06T06:17:43.382Z,9.33
2018-07-06T06:20:14.774Z,9.37
2018-07-06T06:22:42.785Z,9.07
2018-07-06T06:25:11.380Z,9.50
2018-07-06T06:27:39.721Z,11.30
2018-07-06T06:30:08.029Z,11.97
2018-07-06T06:32:36.651Z,12.50
2018-07-06T06:35:04.948Z,12.43
2018-07-06T06:37:33.298Z,13.43
2018-07-06T06:40:01.711Z,14.47
2018-07-06T06:42:30.039Z,14.43
2018-07-06T06:44:58.315Z,13.60
2018-07-06T06:47:26.693Z,13.40
2018-07-06T06:49:55.014Z,12.80
2018-07-06T06:52:23.047Z,12.80
2018-07-06T06:54:51.346Z,17.33
2018-07-06T06:57:19.684Z,21.43
2018-07-06T06:59:50.020Z,17.33
2018-07-06T07:02:18.352Z,17.40
2018-07-06T07:04:46.677Z,18.00
2018-07-06T07:07:15.139Z,17.63
2018-07-06T07:09:43.462Z,21.73
2018-07-06T07:12:11.748Z,26.00
2018-07-06T07:14:40.149Z,27.60
2018-07-06T07:17:08.520Z,29.33
2018-07-06T07:19:36.929Z,30.90
2018-07-06T07:22:05.188Z,28.97
2018-07-06T07:24:33.614Z,29.63
2018-07-06T07:27:01.978Z,30.23
2018-07-06T07:29:30.479Z,31.80
2018-07-06T07:31:58.927Z,32.40
2018-07-06T07:34:27.552Z,34.00
2018-07-06T07:36:55.543Z,30.03
2018-07-06T07:39:23.969Z,28.60
2018-07-06T07:41:52.602Z,28.27
2018-07-06T07:44:21.130Z,28.13
2018-07-06T07:46:49.448Z,29.03
2018-07-06T07:49:17.722Z,28.97
2018-07-06T07:51:56.765Z,27.30
2018-07-06T07:54:33.012Z,28.03
2018-07-06T07:57:02.296Z,27.43
2018-07-06T07:59:32.227Z,27.63
2018-07-06T08:02:01.361Z,24.33
2018-07-06T08:04:29.666Z,22.32
2018-07-06T08:06:58.249Z,22.02
2018-07-06T08:09:27.331Z,22.05
2018-07-06T08:11:57.136Z,20.82
2018-07-06T08:14:25.549Z,21.87
2018-07-06T08:16:53.896Z,22.93
2018-07-06T08:19:22.459Z,26.02
2018-07-06T08:21:51.066Z,26.90
2018-07-06T08:24:19.975Z,25.17
2018-07-06T08:26:48.529Z,27.35
2018-07-06T08:29:16.906Z,29.42
2018-07-06T08:31:45.466Z,30.62
2018-07-06T08:34:25.194Z,29.60
2018-07-06T08:37:37.368Z,30.37
2018-07-06T08:40:05.694Z,27.90
2018-07-06T08:42:36.022Z,27.77
2018-07-06T08:45:04.773Z,28.75
2018-07-06T08:47:33.105Z,28.65
2018-07-06T08:50:02.198Z,28.85
2018-07-06T08:52:30.807Z,30.25
2018-07-06T08:54:59.197Z,29.10
2018-07-06T08:57:28.882Z,26.82
2018-07-06T08:59:57.645Z,26.05
2018-07-06T09:02:26.248Z,26.77
2018-07-06T09:04:55.350Z,26.40
2018-07-06T09:07:24.014Z,27.40
2018-07-06T09:09:52.797Z,30.27
2018-07-06T09:12:21.180Z,28.62
2018-07-06T09:14:49.508Z,31.27
2018-07-06T09:17:18.895Z,31.35
2018-07-06T09:19:47.670Z,29.87
2018-07-06T09:22:16.465Z,33.20
2018-07-06T09:24:45.567Z,31.30
2018-07-06T09:27:14.032Z,31.68
2018-07-06T09:29:42.415Z,31.97
2018-07-06T09:32:10.803Z,31.50
2018-07-06T09:34:39.486Z,31.80
2018-07-06T09:37:07.977Z,32.00
2018-07-06T09:39:36.664Z,30.60
2018-07-06T09:42:04.975Z,31.42
2018-07-06T09:44:33.521Z,31.12
2018-07-06T09:47:01.820Z,30.77
2018-07-06T09:49:30.095Z,30.82
2018-07-06T09:51:58.458Z,28.30
2018-07-06T09:54:26.752Z,27.95
2018-07-06T09:56:55.102Z,29.50
2018-07-06T09:59:23.443Z,28.75
2018-07-06T10:01:51.864Z,28.73
2018-07-06T10:04:20.194Z,28.70
2018-07-06T10:06:48.533Z,28.95
2018-07-06T10:09:16.824Z,30.37
2018-07-06T10:11:45.099Z,29.77
2018-07-06T10:14:13.424Z,30.57
2018-07-06T10:16:41.766Z,30.02
2018-07-06T10:19:09.795Z,28.65
2018-07-06T10:21:38.101Z,27.50
2018-07-06T10:24:06.497Z,27.50
2018-07-06T10:26:34.959Z,26.80
2018-07-06T10:30:19.372Z,27.90
2018-07-06T10:32:47.808Z,27.75
2018-07-06T10:35:16.116Z,26.25
2018-07-06T10:37:44.423Z,26.35
2018-07-06T10:40:12.780Z,26.62
2018-07-06T10:42:41.151Z,25.35
2018-07-06T10:45:09.519Z,25.25
2018-07-06T10:47:37.787Z,24.30
2018-07-06T10:50:06.125Z,25.20
2018-07-06T10:52:34.446Z,26.20
2018-07-06T10:55:02.787Z,24.98
2018-07-06T10:57:31.086Z,26.90
2018-07-06T10:59:59.423Z,25.15
2018-07-06T11:02:27.746Z,25.82
2018-07-06T11:04:56.363Z,22.37
2018-07-06T11:07:24.723Z,21.97
2018-07-06T11:09:53.091Z,21.30
2018-07-06T11:12:21.383Z,22.45
2018-07-06T11:14:49.680Z,22.35
2018-07-06T11:17:17.993Z,19.98
2018-07-06T11:19:46.243Z,19.57
2018-07-06T11:22:14.503Z,22.10
2018-07-06T11:24:42.851Z,22.37
2018-07-06T11:27:11.121Z,19.02
2018-07-06T11:29:39.967Z,21.23
2018-07-06T11:32:08.552Z,21.17
2018-07-06T11:34:36.847Z,21.40
2018-07-06T11:37:05.199Z,20.08
2018-07-06T11:39:34.490Z,19.45
2018-07-06T11:42:02.742Z,18.55
2018-07-06T11:44:31.099Z,16.27
2018-07-06T11:46:59.387Z,17.85
2018-07-06T11:49:27.759Z,19.48
2018-07-06T11:51:56.046Z,17.85
2018-07-06T11:54:24.390Z,17.85
2018-07-06T11:56:52.699Z,15.93
2018-07-06T11:59:20.970Z,16.65
2018-07-06T12:01:49.424Z,18.05
2018-07-06T12:04:17.803Z,19.73
2018-07-06T12:06:46.153Z,17.90
2018-07-06T12:09:15.106Z,16.55
2018-07-06T12:11:43.509Z,17.50
2018-07-06T12:14:11.934Z,17.42
2018-07-06T12:16:40.266Z,19.35
2018-07-06T12:19:08.576Z,17.17
2018-07-06T12:21:36.870Z,15.90
2018-07-06T12:24:04.963Z,19.32
2018-07-06T12:26:33.306Z,17.52
2018-07-06T12:29:01.737Z,18.92
2018-07-06T12:31:30.409Z,17.80
2018-07-06T12:33:58.739Z,16.77
2018-07-06T12:36:27.068Z,15.68
2018-07-06T12:38:55.406Z,15.20
2018-07-06T12:41:23.454Z,12.82
2018-07-06T12:43:51.779Z,11.63
2018-07-06T12:46:20.058Z,14.13
2018-07-06T12:48:48.509Z,12.10
2018-07-06T12:51:17.103Z,15.23
2018-07-06T12:53:45.476Z,14.38
2018-07-06T12:56:13.754Z,13.78
2018-07-06T12:58:42.076Z,11.12
2018-07-06T13:01:10.048Z,11.53
2018-07-06T13:03:38.389Z,10.18
2018-07-06T13:06:06.732Z,12.20
2018-07-06T13:08:36.167Z,12.05
2018-07-06T13:11:04.440Z,11.38
2018-07-06T13:13:32.434Z,9.43
2018-07-06T13:16:00.732Z,10.78
2018-07-06T13:18:29.073Z,9.90
2018-07-06T13:20:57.141Z,10.32
2018-07-06T13:23:26.373Z,10.32
2018-07-06T13:25:54.814Z,11.05
2018-07-06T13:28:23.045Z,9.60
2018-07-06T13:30:51.337Z,9.33
2018-07-06T13:33:26.556Z,9.05
2018-07-06T13:35:54.832Z,9.50
2018-07-06T13:38:23.086Z,9.70
2018-07-06T13:40:51.409Z,9.40
2018-07-06T13:43:19.650Z,7.70
2018-07-06T13:45:47.940Z,8.85
2018-07-06T13:48:16.269Z,6.75
2018-07-06T13:50:44.334Z,6.37
2018-07-06T13:53:12.863Z,6.87
2018-07-06T13:55:41.185Z,7.40
2018-07-06T13:58:09.520Z,6.83
2018-07-06T14:00:37.892Z,7.25
2018-07-06T14:03:06.250Z,5.47
2018-07-06T14:05:35.800Z,5.62
2018-07-06T14:08:04.093Z,5.90
2018-07-06T14:10:32.408Z,6.85
2018-07-06T14:13:00.797Z,6.55
2018-07-06T14:15:29.033Z,6.58
2018-07-06T14:17:57.065Z,6.87
2018-07-06T14:20:25.436Z,5.30
2018-07-06T14:22:53.954Z,4.97
2018-07-06T14:25:22.208Z,5.70
2018-07-06T14:27:50.525Z,5.15
2018-07-06T14:30:18.811Z,5.72
2018-07-06T14:32:47.091Z,5.65
2018-07-06T14:35:15.388Z,5.10
2018-07-06T14:37:43.701Z,5.30
2018-07-06T14:40:11.995Z,5.42
2018-07-06T14:42:40.218Z,6.17
2018-07-06T14:45:08.504Z,6.95
2018-07-06T14:47:36.876Z,6.00
2018-07-06T14:50:05.173Z,5.58
2018-07-06T14:52:33.454Z,5.67
2018-07-06T14:55:01.705Z,5.55
2018-07-06T14:57:29.958Z,5.80
2018-07-06T14:59:58.285Z,6.05
2018-07-06T15:02:26.515Z,5.75
2018-07-06T15:04:54.873Z,5.92
2018-07-06T15:07:23.116Z,4.90
2018-07-06T15:09:51.356Z,6.30
2018-07-06T15:12:19.645Z,5.17
2018-07-06T15:14:47.940Z,5.12
2018-07-06T15:17:16.202Z,5.28
2018-07-06T15:19:44.528Z,5.95
2018-07-06T15:22:12.534Z,5.03
2018-07-06T15:24:41.392Z,5.58
2018-07-06T15:27:09.408Z,5.25
2018-07-06T15:29:37.652Z,6.00
2018-07-06T15:32:06.126Z,5.70
2018-07-06T15:34:34.420Z,5.83
2018-07-06T15:37:02.775Z,5.22
2018-07-06T15:39:31.088Z,5.03
2018-07-06T15:41:59.323Z,4.72
2018-07-06T15:44:27.332Z,8.65
2018-07-06T15:46:55.658Z,4.95
2018-07-06T15:49:23.654Z,5.33
2018-07-06T15:51:51.964Z,5.00
2018-07-06T15:54:20.215Z,4.83
2018-07-06T15:56:48.464Z,5.22
2018-07-06T15:59:16.790Z,4.70
2018-07-06T16:01:45.075Z,4.80
2018-07-06T16:04:13.392Z,4.83
2018-07-06T16:06:41.635Z,4.70
2018-07-06T16:09:09.885Z,5.33
2018-07-06T16:11:38.184Z,5.05
2018-07-06T16:14:06.537Z,6.62
2018-07-06T16:16:34.880Z,4.25
2018-07-06T16:19:02.882Z,4.60
2018-07-06T16:21:31.217Z,5.10
2018-07-06T16:23:59.954Z,5.12
2018-07-06T16:26:28.434Z,4.60
2018-07-06T16:28:56.697Z,5.50
2018-07-06T16:31:25.037Z,5.35
2018-07-06T16:33:53.074Z,4.75
2018-07-06T16:36:21.419Z,5.22
2018-07-06T16:38:49.640Z,4.47
2018-07-06T16:41:17.930Z,4.62
2018-07-06T16:43:46.198Z,4.92
2018-07-06T16:46:14.469Z,5.55
2018-07-06T16:48:42.730Z,5.20
2018-07-06T16:51:11.069Z,6.95
2018-07-06T16:53:39.393Z,4.90
2018-07-06T16:56:07.642Z,4.67
2018-07-06T16:58:35.964Z,4.60
2018-07-06T17:01:04.287Z,4.87
2018-07-06T17:03:32.552Z,5.10
2018-07-06T17:06:00.899Z,4.62
2018-07-06T17:08:29.192Z,4.33
2018-07-06T17:10:57.146Z,4.42
2018-07-06T17:13:25.416Z,4.75
2018-07-06T17:15:53.737Z,4.58
2018-07-06T17:18:22.111Z,4.83
2018-07-06T17:20:50.399Z,5.47
2018-07-06T17:23:18.701Z,5.10
2018-07-06T17:25:46.998Z,4.30
2018-07-06T17:28:15.323Z,4.00
2018-07-06T17:30:43.608Z,4.25
2018-07-06T17:33:11.935Z,4.12
2018-07-06T17:35:40.227Z,4.40
2018-07-06T17:38:08.226Z,4.17
2018-07-06T17:40:36.462Z,4.50
2018-07-06T17:43:04.791Z,5.20
2018-07-06T17:45:33.082Z,4.53
2018-07-06T17:48:01.415Z,4.55
2018-07-06T17:50:29.783Z,3.92
2018-07-06T17:52:58.037Z,3.92
2018-07-06T17:55:26.293Z,4.22
2018-07-06T17:57:54.588Z,4.37
2018-07-06T18:00:22.862Z,4.35
2018-07-06T18:02:51.152Z,3.77
2018-07-06T18:05:19.430Z,3.90
2018-07-06T18:07:47.775Z,3.80
2018-07-06T18:10:16.093Z,3.70
2018-07-06T18:12:44.102Z,3.90
2018-07-06T18:15:13.585Z,3.67
2018-07-06T18:17:42.550Z,3.47
2018-07-06T18:20:10.830Z,3.62
2018-07-06T18:22:39.104Z,3.47
2018-07-06T18:25:07.097Z,3.70
2018-07-06T18:27:35.380Z,3.52
2018-07-06T18:30:03.716Z,3.60
2018-07-06T18:32:32.230Z,3.72
2018-07-06T18:35:00.560Z,3.60
2018-07-06T18:37:28.875Z,3.40
2018-07-06T18:39:57.110Z,2.98
2018-07-06T18:42:25.371Z,3.75
2018-07-06T18:44:53.666Z,3.55
2018-07-06T18:47:21.889Z,3.40
2018-07-06T18:49:50.178Z,3.58
2018-07-06T18:52:18.523Z,3.62
2018-07-06T18:54:46.904Z,3.90
2018-07-06T18:57:15.086Z,3.62
2018-07-06T18:59:43.376Z,3.22
2018-07-06T19:02:11.671Z,3.15
2018-07-06T19:04:39.965Z,3.62
2018-07-06T19:07:08.245Z,3.87
2018-07-06T19:09:36.792Z,3.35
2018-07-06T19:12:05.088Z,3.40
2018-07-06T19:14:33.443Z,3.50
2018-07-06T19:17:02.215Z,3.40
2018-07-06T19:19:30.544Z,3.40
2018-07-06T19:21:58.883Z,3.50
2018-07-06T19:24:27.216Z,3.42
2018-07-06T19:26:55.476Z,3.05
2018-07-06T19:29:23.743Z,3.52
2018-07-06T19:31:53.039Z,2.90
2018-07-06T19:34:21.311Z,3.92
2018-07-06T19:36:49.618Z,3.52
2018-07-06T19:39:17.941Z,3.25
2018-07-06T19:41:46.206Z,3.35
2018-07-06T19:44:14.234Z,3.40
2018-07-06T19:46:42.597Z,3.42
2018-07-06T19:49:10.921Z,4.05
2018-07-06T19:51:39.291Z,3.62
2018-07-06T19:54:07.387Z,3.40
2018-07-06T19:56:35.471Z,3.85
2018-07-06T19:59:03.788Z,3.52
2018-07-06T20:01:32.164Z,3.30
2018-07-06T20:04:00.465Z,3.58
2018-07-06T20:06:28.763Z,3.37
2018-07-06T20:08:57.029Z,4.20
2018-07-06T20:11:25.042Z,3.85
2018-07-06T20:13:53.324Z,3.87
2018-07-06T20:16:21.607Z,3.92
2018-07-06T20:18:49.927Z,4.30
2018-07-06T20:21:18.206Z,3.58
2018-07-06T20:23:46.474Z,3.83
2018-07-06T20:26:14.789Z,4.03
2018-07-06T20:28:43.805Z,4.17
2018-07-06T20:31:12.137Z,3.98
2018-07-06T20:33:40.432Z,3.77
2018-07-06T20:36:08.782Z,4.28
2018-07-06T20:38:37.039Z,4.90
2018-07-06T20:41:05.379Z,5.10
2018-07-06T20:43:33.675Z,3.80
2018-07-06T20:46:01.956Z,3.80
2018-07-06T20:48:30.400Z,3.25
2018-07-06T20:50:58.884Z,3.37
2018-07-06T20:53:27.532Z,3.60
2018-07-06T20:55:55.860Z,3.72
2018-07-06T20:58:24.138Z,4.12
2018-07-06T21:00:52.433Z,4.22
2018-07-06T21:03:20.710Z,3.67
2018-07-06T21:05:49.047Z,3.92
2018-07-06T21:08:17.308Z,4.03
2018-07-06T21:10:46.204Z,3.62
2018-07-06T21:13:14.584Z,3.40
2018-07-06T21:15:45.060Z,4.58
2018-07-06T21:18:14.697Z,4.92
2018-07-06T21:20:43.255Z,5.25
2018-07-06T21:23:11.848Z,4.95
2018-07-06T21:25:40.768Z,4.62
2018-07-06T21:28:09.221Z,4.05
2018-07-06T21:30:37.857Z,3.85
2018-07-06T21:33:06.401Z,3.80
2018-07-06T21:35:34.830Z,4.58
2018-07-06T21:38:03.289Z,3.72
2018-07-06T21:40:31.785Z,4.03
2018-07-06T21:43:00.197Z,4.10
2018-07-06T21:45:28.791Z,3.83
2018-07-06T21:47:57.186Z,4.12
2018-07-06T21:50:25.618Z,4.08
2018-07-06T21:52:54.199Z,3.80
2018-07-06T21:55:22.815Z,4.00
2018-07-06T21:57:51.164Z,4.35
2018-07-06T22:00:29.428Z,4.58
2018-07-06T22:02:57.769Z,4.65
2018-07-06T22:05:26.208Z,4.45
2018-07-06T22:07:54.663Z,4.72
2018-07-06T22:10:22.947Z,4.60
2018-07-06T22:12:51.192Z,4.53
2018-07-06T22:15:19.521Z,4.05
2018-07-06T22:17:47.823Z,4.20
2018-07-06T22:20:16.124Z,4.22
2018-07-06T22:22:44.455Z,4.22
2018-07-06T22:25:12.753Z,4.55
2018-07-06T22:27:41.019Z,4.20
2018-07-06T22:30:09.351Z,3.92
2018-07-06T22:32:37.622Z,4.22
2018-07-06T22:35:05.893Z,4.78
2018-07-06T22:37:33.880Z,4.12
2018-07-06T22:40:02.137Z,4.08
2018-07-06T22:42:30.472Z,4.50
2018-07-06T22:44:58.758Z,4.70
2018-07-06T22:47:27.031Z,4.78
2018-07-06T22:49:55.310Z,5.08
2018-07-06T22:52:24.414Z,4.20
2018-07-06T22:54:52.710Z,4.90
2018-07-06T22:57:20.987Z,4.87
2018-07-06T22:59:49.222Z,4.50
2018-07-06T23:02:17.562Z,5.67
2018-07-06T23:04:45.844Z,5.08
2018-07-06T23:07:14.118Z,6.25
2018-07-06T23:09:42.616Z,4.87
2018-07-06T23:12:10.884Z,5.60
2018-07-06T23:14:39.134Z,5.30
2018-07-06T23:17:07.129Z,4.83
2018-07-06T23:19:35.397Z,5.70
2018-07-06T23:22:03.687Z,5.53
2018-07-06T23:24:31.962Z,5.62
2018-07-06T23:27:00.294Z,5.57
2018-07-06T23:29:28.536Z,5.50
2018-07-06T23:31:56.806Z,5.33
2018-07-06T23:34:25.064Z,4.87
2018-07-06T23:36:53.357Z,5.30
2018-07-06T23:39:21.591Z,4.90
2018-07-06T23:41:49.846Z,4.83
2018-07-06T23:44:18.104Z,5.53
2018-07-06T23:46:46.376Z,5.40
2018-07-06T23:49:14.722Z,5.87
2018-07-06T23:51:42.969Z,5.73
2018-07-06T23:54:11.234Z,6.00
2018-07-06T23:56:39.495Z,5.97
2018-07-06T23:59:07.758Z,6.30
